createdAt,value
2024-02-20T00:02:35.263Z,4.97
2024-02-20T00:12:43.405Z,4.88
2024-02-20T00:22:47.599Z,3.45
2024-02-20T00:32:50.939Z,4.45
2024-02-20T00:42:55.115Z,4.65
2024-02-20T00:52:57.944Z,4.18
2024-02-20T01:03:02.158Z,5.72
2024-02-20T01:13:05.223Z,5.75
2024-02-20T01:23:09.976Z,5.57
2024-02-20T01:33:14.098Z,4.20
2024-02-20T01:43:18.397Z,4.60
2024-02-20T01:53:23.270Z,4.72
2024-02-20T02:03:28.747Z,3.83
2024-02-20T02:13:31.788Z,4.82
2024-02-20T02:23:35.974Z,4.07
2024-02-20T02:33:40.106Z,3.13
2024-02-20T02:43:43.054Z,4.00
2024-02-20T02:53:47.207Z,4.05
2024-02-20T03:03:50.042Z,3.85
2024-02-20T03:13:54.164Z,3.17
2024-02-20T03:23:56.939Z,4.43
2024-02-20T03:34:01.603Z,3.13
2024-02-20T03:44:04.575Z,4.30
2024-02-20T03:54:08.760Z,3.88
2024-02-20T04:04:11.631Z,4.88
2024-02-20T04:14:15.796Z,3.63
2024-02-20T04:24:18.595Z,3.72
2024-02-20T04:34:22.896Z,3.35
2024-02-20T04:44:25.687Z,2.70
2024-02-20T04:54:29.796Z,4.07
2024-02-20T05:04:32.810Z,4.10
2024-02-20T05:14:36.993Z,3.15
2024-02-20T05:24:41.938Z,4.63
2024-02-20T05:34:46.255Z,3.33
2024-02-20T05:44:49.103Z,3.90
2024-02-20T05:54:53.313Z,4.00
2024-02-20T06:04:56.167Z,3.47
2024-02-20T06:15:02.447Z,3.83
2024-02-20T06:25:09.262Z,4.43
2024-02-20T06:35:13.689Z,4.03
2024-02-20T06:45:16.879Z,4.90
2024-02-20T06:55:21.771Z,4.78
2024-02-20T07:05:24.889Z,4.13
2024-02-20T07:15:29.399Z,4.38
2024-02-20T07:25:32.526Z,4.15
2024-02-20T07:35:39.330Z,3.40
2024-02-20T07:45:42.576Z,4.82
2024-02-20T07:55:46.796Z,4.18
2024-02-20T08:05:49.642Z,4.10
2024-02-20T08:15:53.809Z,4.03
2024-02-20T08:25:56.567Z,3.50
2024-02-20T08:36:00.705Z,3.85
2024-02-20T08:46:03.544Z,3.33
2024-02-20T08:56:08.136Z,3.17
2024-02-20T09:06:11.116Z,3.03
2024-02-20T09:16:15.555Z,3.38
2024-02-20T09:26:21.334Z,4.13
2024-02-20T09:36:25.473Z,4.32
2024-02-20T09:46:30.210Z,4.57
2024-02-20T09:56:37.909Z,3.83
2024-02-20T10:06:40.682Z,5.00
2024-02-20T10:16:45.645Z,5.03
2024-02-20T10:26:49.518Z,5.20
2024-02-20T10:36:53.630Z,6.20
2024-02-20T10:46:59.386Z,5.65
2024-02-20T10:57:03.526Z,5.70
2024-02-20T11:07:07.853Z,5.80
2024-02-20T11:17:24.912Z,5.78
2024-02-20T11:27:38.813Z,4.72
2024-02-20T11:37:54.520Z,5.53
2024-02-20T11:48:02.015Z,5.18
2024-02-20T11:58:07.923Z,5.38
2024-02-20T12:08:15.300Z,5.38
2024-02-20T12:18:26.807Z,5.78
2024-02-20T12:28:31.232Z,5.88
2024-02-20T12:38:35.433Z,5.38
2024-02-20T12:48:39.410Z,7.07
2024-02-20T12:58:46.995Z,6.35
2024-02-20T13:08:50.703Z,6.50
2024-02-20T13:18:54.944Z,4.80
2024-02-20T13:28:57.735Z,4.30
2024-02-20T13:39:02.645Z,5.18
2024-02-20T13:49:05.600Z,4.72
2024-02-20T13:59:09.877Z,5.18
2024-02-20T14:09:12.846Z,4.18
2024-02-20T14:19:17.165Z,4.38
2024-02-20T14:29:21.654Z,4.28
2024-02-20T14:39:26.193Z,3.72
2024-02-20T14:49:29.268Z,4.50
2024-02-20T14:59:33.455Z,4.97
2024-02-20T15:09:36.196Z,6.03
2024-02-20T15:19:40.415Z,3.95
2024-02-20T15:29:43.206Z,4.50
2024-02-20T15:39:47.472Z,4.22
2024-02-20T15:49:50.283Z,3.97
2024-02-20T15:59:54.577Z,4.90
2024-02-20T16:09:58.480Z,4.28
2024-02-20T16:20:04.960Z,5.18
2024-02-20T16:30:09.436Z,4.28
2024-02-20T16:40:14.456Z,3.75
2024-02-20T16:50:17.658Z,3.95
2024-02-20T17:00:23.364Z,3.65
2024-02-20T17:10:26.275Z,2.90
2024-02-20T17:20:30.586Z,2.78
2024-02-20T17:30:33.465Z,3.22
2024-02-20T17:40:37.664Z,3.08
2024-02-20T17:50:40.502Z,3.10
2024-02-20T18:00:45.125Z,3.50
2024-02-20T18:10:48.121Z,3.97
2024-02-20T18:20:52.415Z,5.40
2024-02-20T18:30:55.397Z,4.03
2024-02-20T18:41:00.276Z,4.38
2024-02-20T18:51:03.252Z,5.82
2024-02-20T19:01:07.921Z,7.53
2024-02-20T19:11:12.882Z,7.75
2024-02-20T19:21:27.270Z,10.88
2024-02-20T19:31:30.623Z,9.10
2024-02-20T19:41:36.468Z,11.60
2024-02-20T19:51:39.379Z,10.98
2024-02-20T20:01:44.975Z,9.77
2024-02-20T20:11:48.687Z,11.98
2024-02-20T20:21:53.049Z,10.68
2024-02-20T20:31:57.940Z,12.25
2024-02-20T20:42:02.202Z,12.30
2024-02-20T20:52:05.400Z,10.07
2024-02-20T21:02:10.836Z,9.50
2024-02-20T21:12:13.842Z,10.35
2024-02-20T21:22:18.102Z,10.90
2024-02-20T21:32:21.188Z,9.68
2024-02-20T21:42:25.308Z,10.60
2024-02-20T21:52:28.133Z,9.88
2024-02-20T22:02:32.344Z,10.02
2024-02-20T22:12:35.829Z,10.32
2024-02-20T22:22:40.027Z,9.70
2024-02-20T22:32:42.954Z,9.48
2024-02-20T22:42:47.196Z,9.80
2024-02-20T22:52:50.038Z,10.98
2024-02-20T23:02:54.253Z,10.20
2024-02-20T23:12:57.028Z,8.82
2024-02-20T23:23:01.576Z,10.35
2024-02-20T23:33:04.728Z,10.13
2024-02-20T23:43:08.924Z,11.23
2024-02-20T23:53:11.802Z,10.60
